Time;durP1;ratioP1;P1;durP2;ratioP2;P2;SDS_P1;SDS_P2;PMS_P1;PMS_P2;Temp;Humidity;BMP_temperature;BMP_pressure;BME280_temperature;BME280_humidity;BME280_pressure;Samples;Min_cycle;Max_cycle;Signal;HPM_P1;HPM_P2
2021/11/20 00:00:51;;;;;;;9.68;5.22;;;;;;;10.97;72.64;100777.91;2071272;84;30499;-66
2021/11/20 00:03:53;;;;;;;11.03;5.55;;;;;;;10.98;72.64;100772.10;2068322;84;27851;-65
2021/11/20 00:06:59;;;;;;;11.85;5.47;;;;;;;10.99;72.68;100769.83;2065490;86;29063;-65
2021/11/20 00:10:00;;;;;;;7.60;4.87;;;;;;;10.99;72.75;100776.53;2092431;84;31079;-64
2021/11/20 00:13:07;;;;;;;8.08;4.87;;;;;;;11.03;72.64;100772.75;2107505;84;34402;-65
2021/11/20 00:16:09;;;;;;;10.65;5.65;;;;;;;11.03;72.62;100783.47;2125642;81;30685;-64
2021/11/20 00:19:11;;;;;;;11.90;4.85;;;;;;;11.04;72.61;100777.17;2178581;81;28387;-64
2021/11/20 00:22:29;;;;;;;8.60;5.30;;;;;;;11.05;72.62;100781.59;2181979;81;29931;-64
2021/11/20 00:25:41;;;;;;;8.50;5.15;;;;;;;11.04;72.56;100773.16;2187741;81;31365;-64
2021/11/20 00:32:02;;;;;;;11.35;5.05;;;;;;;11.05;72.56;100776.23;2161167;81;29436;-64
2021/11/20 00:35:08;;;;;;;10.43;5.08;;;;;;;11.05;72.60;100789.64;2179300;80;27686;-65
2021/11/20 00:38:12;;;;;;;10.32;5.35;;;;;;;11.05;72.54;100792.33;2160624;81;28821;-63
2021/11/20 00:41:18;;;;;;;9.88;5.25;;;;;;;11.05;72.66;100786.97;2120925;82;30474;-65
2021/11/20 00:44:22;;;;;;;14.85;6.08;;;;;;;11.05;72.56;100791.88;2135458;82;30379;-66
2021/11/20 00:47:25;;;;;;;12.10;5.65;;;;;;;11.06;72.56;100784.23;2177174;81;31384;-65
2021/11/20 00:50:27;;;;;;;8.33;5.30;;;;;;;11.06;72.52;100790.94;2145406;82;28461;-66
2021/11/20 00:53:30;;;;;;;8.90;5.33;;;;;;;11.06;72.48;100790.94;2174060;81;29110;-66
2021/11/20 00:56:34;;;;;;;7.53;5.03;;;;;;;11.06;72.49;100787.37;2137687;81;31204;-66
2021/11/20 00:59:36;;;;;;;9.78;5.58;;;;;;;11.03;72.47;100788.38;2113441;82;33040;-66
2021/11/20 01:02:38;;;;;;;9.45;5.33;;;;;;;11.04;72.55;100781.20;2182120;81;30107;-66
2021/11/20 01:05:42;;;;;;;11.48;5.97;;;;;;;11.04;72.54;100774.50;2149246;82;27702;-66
2021/11/20 01:08:48;;;;;;;15.03;5.87;;;;;;;11.02;72.54;100771.89;2172480;81;28783;-66
2021/11/20 01:12:01;;;;;;;8.88;5.60;;;;;;;10.98;72.46;100768.94;2112983;84;32220;-66
2021/11/20 01:15:08;;;;;;;9.75;5.55;;;;;;;10.95;72.48;100767.73;2117778;82;33816;-64
2021/11/20 01:18:10;;;;;;;18.27;8.40;;;;;;;10.93;72.64;100783.89;2178567;81;29402;-64
2021/11/20 01:21:14;;;;;;;10.30;5.72;;;;;;;10.93;72.66;100782.55;2185042;80;28140;-65
2021/11/20 01:24:17;;;;;;;10.15;5.92;;;;;;;10.95;72.69;100774.42;2185832;81;28692;-65
2021/11/20 01:27:19;;;;;;;9.65;6.12;;;;;;;10.96;72.73;100772.63;2187543;81;31006;-65
2021/11/20 01:30:22;;;;;;;10.25;6.42;;;;;;;10.96;72.72;100773.49;2186120;81;32814;-65
2021/11/20 01:33:24;;;;;;;11.30;6.55;;;;;;;10.99;72.73;100760.44;2184880;81;29472;-65
2021/11/20 01:36:30;;;;;;;8.00;6.00;;;;;;;11.00;72.77;100767.55;2185750;81;27602;-65
2021/11/20 01:39:34;;;;;;;10.25;6.25;;;;;;;11.02;72.77;100749.55;2185385;81;29463;-66
2021/11/20 01:42:36;;;;;;;11.35;6.33;;;;;;;11.03;72.73;100748.63;2185433;81;31871;-66
2021/11/20 01:45:58;;;;;;;13.32;6.55;;;;;;;11.03;72.70;100751.30;2187150;81;33385;-66
2021/11/20 01:49:15;;;;;;;11.38;6.30;;;;;;;11.04;72.74;100757.06;2186762;81;29760;-66
2021/11/20 01:52:57;;;;;;;13.60;5.83;;;;;;;11.05;72.80;100760.15;2177353;81;27651;-67
2021/11/20 01:56:16;;;;;;;12.10;6.90;;;;;;;11.06;72.80;100758.77;2185689;81;29041;-67
2021/11/20 01:59:33;;;;;;;11.65;6.25;;;;;;;11.07;72.81;100764.98;2188202;81;32486;-67
2021/11/20 02:02:58;;;;;;;10.03;6.60;;;;;;;11.07;72.75;100763.64;2185901;81;34109;-67
2021/11/20 02:06:39;;;;;;;12.13;6.90;;;;;;;11.08;72.85;100758.68;2185719;81;29803;-67
2021/11/20 02:09:52;;;;;;;13.50;6.53;;;;;;;11.08;72.89;100765.38;2184401;81;28244;-66
2021/11/20 02:12:59;;;;;;;10.93;6.83;;;;;;;11.08;72.84;100772.09;2184852;80;29830;-66
2021/11/20 02:16:17;;;;;;;13.25;6.20;;;;;;;11.08;72.85;100768.06;2186361;80;31381;-66
2021/11/20 02:19:30;;;;;;;10.68;6.80;;;;;;;11.09;72.89;100777.85;2184555;81;33402;-67
2021/11/20 02:22:38;;;;;;;13.03;6.65;;;;;;;11.08;72.88;100774.31;2184749;81;29538;-67
2021/11/20 02:25:39;;;;;;;10.85;6.20;;;;;;;11.07;72.90;100773.91;2224203;79;28174;-67
2021/11/20 02:28:41;;;;;;;15.20;7.17;;;;;;;11.08;72.94;100775.66;2200391;79;28769;-65
2021/11/20 02:31:50;;;;;;;11.73;6.67;;;;;;;11.05;72.92;100762.37;2184299;81;30832;-66
2021/11/20 02:34:53;;;;;;;12.15;7.00;;;;;;;11.08;72.96;100774.31;2187566;81;32965;-66
2021/11/20 02:37:55;;;;;;;11.75;6.72;;;;;;;11.09;72.96;100767.98;2190399;81;29311;-66
2021/11/20 02:40:58;;;;;;;10.15;6.92;;;;;;;11.09;72.94;100767.12;2185684;81;27633;-67
2021/11/20 02:44:04;;;;;;;12.80;7.22;;;;;;;11.08;72.95;100772.09;2185354;81;28650;-66
2021/11/20 02:47:20;;;;;;;14.45;6.80;;;;;;;11.09;73.02;100768.47;2187259;81;31004;-67
2021/11/20 02:50:39;;;;;;;12.40;7.47;;;;;;;11.08;72.97;100753.31;2153746;82;32980;-66
2021/11/20 02:53:46;;;;;;;15.10;7.45;;;;;;;11.09;73.02;100772.49;2149224;82;30310;-66
2021/11/20 02:56:53;;;;;;;12.03;7.15;;;;;;;11.08;73.01;100779.68;2146597;82;27663;-66
2021/11/20 02:59:55;;;;;;;12.58;7.28;;;;;;;11.08;73.05;100780.13;2084260;82;28478;-67
2021/11/20 03:02:57;;;;;;;12.33;6.75;;;;;;;11.08;73.05;100782.36;2108267;84;31037;-67
2021/11/20 03:05:59;;;;;;;14.43;7.85;;;;;;;11.10;73.08;100788.50;2146912;82;33085;-67
2021/11/20 03:09:02;;;;;;;11.10;8.05;;;;;;;11.09;73.08;100788.09;2147021;82;29683;-67
2021/11/20 03:12:08;;;;;;;13.20;8.00;;;;;;;11.09;73.05;100784.08;2147991;82;27792;-67
2021/11/20 03:15:10;;;;;;;16.25;7.97;;;;;;;11.08;73.09;100788.17;2143956;82;28638;-67
2021/11/20 03:18:12;;;;;;;10.88;7.95;;;;;;;11.07;73.16;100792.68;2105882;84;31850;-68
2021/11/20 03:21:16;;;;;;;13.55;8.63;;;;;;;11.07;73.18;100788.66;2113937;82;33747;-67
2021/11/20 03:24:22;;;;;;;15.00;8.38;;;;;;;11.06;73.20;100796.30;2108118;84;29839;-67
2021/11/20 03:27:25;;;;;;;13.70;8.48;;;;;;;11.06;73.24;100797.64;2111964;82;27607;-67
2021/11/20 03:30:27;;;;;;;11.03;8.03;;;;;;;11.08;73.28;100796.22;2144588;82;29259;-66
2021/11/20 03:33:29;;;;;;;17.17;8.60;;;;;;;11.09;73.30;100800.16;2219323;79;31041;-67
2021/11/20 03:36:34;;;;;;;16.80;9.38;;;;;;;11.09;73.30;100804.67;2164993;81;34256;-66
2021/11/20 03:39:36;;;;;;;;;;;;;;;11.07;73.28;100806.09;2194927;79;29879;-67
2021/11/20 03:42:37;;;;;;;17.90;9.90;;;;;;;11.06;73.33;100819.09;2228774;79;27741;-67
2021/11/20 03:45:41;;;;;;;15.03;8.48;;;;;;;11.05;73.40;100816.00;2198149;79;28815;-67
2021/11/20 03:48:43;;;;;;;21.77;9.00;;;;;;;11.06;73.38;100806.13;2197543;79;32362;-66
2021/11/20 03:51:45;;;;;;;14.35;8.78;;;;;;;11.05;73.40;100810.64;2195786;79;34131;-66
2021/11/20 03:54:49;;;;;;;18.50;8.40;;;;;;;11.07;73.46;100815.92;2221196;79;30715;-66
2021/11/20 03:57:51;;;;;;;16.87;8.97;;;;;;;11.08;73.47;100812.30;2190879;81;27654;-66
2021/11/20 04:01:04;;;;;;;14.20;8.38;;;;;;;11.08;73.42;100810.97;2184805;81;29701;-66
2021/11/20 04:04:06;;;;;;;11.30;7.45;;;;;;;11.07;73.42;100817.27;2184827;80;32198;-66
2021/11/20 04:07:08;;;;;;;14.28;8.65;;;;;;;11.07;73.45;100811.45;2184255;81;34178;-66
2021/11/20 04:10:12;;;;;;;18.10;8.68;;;;;;;11.05;73.44;100819.14;2189602;81;30503;-66
2021/11/20 04:13:15;;;;;;;15.08;9.38;;;;;;;11.06;73.50;100804.80;2154922;82;27754;-67
2021/11/20 04:16:19;;;;;;;13.18;9.33;;;;;;;11.05;73.51;100797.23;2191116;79;28676;-67
2021/11/20 04:19:22;;;;;;;13.18;10.00;;;;;;;11.06;73.50;100804.80;2184755;81;31016;-67
2021/11/20 04:22:24;;;;;;;14.80;8.45;;;;;;;11.05;73.50;100810.64;2148508;82;33025;-66
2021/11/20 04:25:27;;;;;;;15.65;9.13;;;;;;;11.04;73.48;100813.37;2171425;81;29418;-66
2021/11/20 04:28:29;;;;;;;15.72;9.48;;;;;;;11.04;73.47;100809.34;2150224;82;27667;-67
2021/11/20 04:31:32;;;;;;;15.03;9.20;;;;;;;11.03;73.57;100810.28;2167500;81;30051;-66
2021/11/20 04:34:34;;;;;;;13.18;9.48;;;;;;;11.02;73.55;100810.77;2148279;82;32193;-67
2021/11/20 04:37:36;;;;;;;13.83;8.98;;;;;;;11.02;73.57;100814.79;2162565;81;33349;-67
2021/11/20 04:40:39;;;;;;;21.07;9.35;;;;;;;11.01;73.57;100809.02;2110421;84;30006;-67
2021/11/20 04:43:43;;;;;;;13.78;9.58;;;;;;;11.00;73.59;100804.59;2177177;81;28070;-68
2021/11/20 04:46:45;;;;;;;13.18;9.85;;;;;;;11.01;73.62;100793.39;2141853;82;28647;-67
2021/11/20 04:49:47;;;;;;;15.50;9.60;;;;;;;11.01;73.68;100802.77;2161291;81;31013;-68
2021/11/20 04:52:49;;;;;;;17.07;10.75;;;;;;;11.01;73.71;100800.98;2154496;81;33162;-67
2021/11/20 04:55:52;;;;;;;20.57;10.58;;;;;;;11.02;73.72;100809.42;2173193;81;29506;-67
2021/11/20 04:58:55;;;;;;;15.90;9.63;;;;;;;11.03;73.71;100808.95;2190012;81;27691;-67
2021/11/20 05:01:57;;;;;;;19.57;10.10;;;;;;;11.01;73.73;100806.34;2161860;81;28647;-67
2021/11/20 05:04:58;;;;;;;17.30;10.10;;;;;;;11.02;73.80;100805.86;2182695;81;31060;-67
2021/11/20 05:08:00;;;;;;;15.53;9.43;;;;;;;11.01;73.83;100798.30;2148474;82;32945;-67
2021/11/20 05:11:03;;;;;;;15.85;9.28;;;;;;;11.02;73.86;100804.52;2178583;81;29315;-69
2021/11/20 05:14:05;;;;;;;15.08;9.25;;;;;;;11.02;73.89;100816.13;2127939;82;27603;-68
2021/11/20 05:17:07;;;;;;;12.20;8.80;;;;;;;11.02;73.89;100815.24;2184506;81;28645;-68
2021/11/20 05:20:09;;;;;;;12.33;8.73;;;;;;;11.01;73.92;100812.16;2109676;83;31843;-68
2021/11/20 05:23:12;;;;;;;17.55;9.00;;;;;;;10.99;73.96;100808.22;2115309;82;33007;-68
2021/11/20 05:26:16;;;;;;;14.55;8.90;;;;;;;11.00;74.04;100811.30;2146970;81;29339;-68
2021/11/20 05:29:29;;;;;;;19.77;8.50;;;;;;;10.99;74.06;100812.72;2122831;82;28009;-67
2021/11/20 05:32:24;;;;;;;12.18;7.90;;;;;;;11.00;74.11;100819.83;2151504;82;28683;-67
2021/11/20 05:35:28;;;;;;;13.22;8.38;;;;;;;10.99;74.16;100826.13;2144106;82;31156;-67
2021/11/20 05:38:30;;;;;;;13.38;8.08;;;;;;;10.99;74.22;100830.14;2113025;82;32971;-67
2021/11/20 05:41:32;;;;;;;11.85;8.03;;;;;;;10.99;74.29;100833.68;2116386;82;29311;-67
2021/11/20 05:44:34;;;;;;;14.10;8.28;;;;;;;11.00;74.33;100831.41;2125392;82;27851;-68
2021/11/20 05:47:36;;;;;;;11.22;7.58;;;;;;;11.03;74.40;100830.39;2130696;82;29484;-69
2021/11/20 05:50:38;;;;;;;12.03;7.85;;;;;;;11.00;74.39;100826.53;2106752;84;31026;-68
2021/11/20 05:53:41;;;;;;;13.68;8.25;;;;;;;10.99;74.48;100827.47;2116966;84;34340;-67
2021/11/20 05:56:43;;;;;;;15.13;8.35;;;;;;;11.00;74.53;100824.70;2096518;84;29695;-67
2021/11/20 05:59:45;;;;;;;12.30;7.95;;;;;;;10.98;74.59;100834.62;2115674;82;27682;-67
2021/11/20 06:02:47;;;;;;;15.80;7.90;;;;;;;10.97;74.64;100820.81;2110327;83;29100;-67
2021/11/20 06:05:49;;;;;;;10.03;7.70;;;;;;;10.96;74.74;100837.83;2124758;83;32337;-67
2021/11/20 06:08:51;;;;;;;15.25;7.55;;;;;;;10.94;74.79;100842.38;2107368;83;32390;-68
2021/11/20 06:11:52;;;;;;;10.90;7.92;;;;;;;10.91;74.88;100842.05;2117102;82;29320;-67
2021/11/20 06:14:54;;;;;;;20.08;8.25;;;;;;;10.92;74.91;100853.66;2120583;83;27718;-67
2021/11/20 06:17:56;;;;;;;15.58;7.78;;;;;;;10.92;75.01;100863.91;2109677;83;30066;-67
2021/11/20 06:20:58;;;;;;;13.58;8.43;;;;;;;10.90;75.06;100862.23;2121235;81;31010;-67
2021/11/20 06:24:00;;;;;;;13.10;8.33;;;;;;;10.90;75.13;100867.11;2133392;83;33844;-67
2021/11/20 06:27:03;;;;;;;15.45;8.25;;;;;;;10.90;75.22;100870.28;2126684;83;29790;-67
2021/11/20 06:30:13;;;;;;;12.03;8.35;;;;;;;10.87;75.26;100871.25;2117704;83;27697;-67
2021/11/20 06:33:15;;;;;;;11.45;8.45;;;;;;;10.85;75.40;100874.95;2119990;82;28757;-66
2021/11/20 06:36:21;;;;;;;14.13;8.20;;;;;;;10.82;75.55;100881.31;2117693;83;31007;-66
2021/11/20 06:39:22;;;;;;;12.18;8.80;;;;;;;10.80;75.78;100881.84;2113968;83;33708;-67
2021/11/20 06:42:24;;;;;;;14.87;8.23;;;;;;;10.80;75.89;100884.53;2129720;82;29738;-67
2021/11/20 06:45:30;;;;;;;15.45;8.63;;;;;;;10.77;75.97;100884.16;2118584;82;28574;-66
2021/11/20 06:48:32;;;;;;;11.12;8.30;;;;;;;10.76;76.04;100886.92;2108249;83;28656;-67
2021/11/20 06:51:34;;;;;;;12.63;8.35;;;;;;;10.75;76.12;100890.08;2152838;82;32209;-67
2021/11/20 06:54:36;;;;;;;13.38;9.20;;;;;;;10.73;76.17;100891.06;2135765;82;34444;-66
2021/11/20 07:00:47;;;;;;;14.37;8.47;;;;;;;10.72;76.39;100896.90;2155465;82;27657;-67
2021/11/20 07:03:59;;;;;;;11.33;8.63;;;;;;;10.72;76.42;100904.94;2149717;82;30061;-67
2021/11/20 07:07:09;;;;;;;12.58;9.55;;;;;;;10.70;76.56;100906.80;2149242;82;31010;-67
2021/11/20 07:10:11;;;;;;;15.70;9.68;;;;;;;10.70;76.58;100911.28;2116928;83;33123;-67
2021/11/20 07:13:14;;;;;;;11.75;9.23;;;;;;;10.71;76.67;100913.02;2109477;84;30093;-67
2021/11/20 07:16:20;;;;;;;12.23;9.43;;;;;;;10.70;76.82;100911.28;2155200;82;27762;-67
2021/11/20 07:19:22;;;;;;;11.70;9.20;;;;;;;10.67;76.80;100906.92;2108725;84;28653;-67
2021/11/20 07:22:24;;;;;;;12.90;8.95;;;;;;;10.67;76.91;100912.28;2140604;82;31034;-67
2021/11/20 07:25:27;;;;;;;14.85;10.78;;;;;;;10.67;76.97;100909.60;2158597;82;33387;-67
2021/11/20 07:28:30;;;;;;;18.67;10.82;;;;;;;10.67;77.04;100911.42;2136943;82;29378;-67
2021/11/20 07:31:32;;;;;;;14.13;11.38;;;;;;;10.68;77.11;100916.71;2192943;81;27730;-67
2021/11/20 07:34:34;;;;;;;16.10;11.35;;;;;;;10.68;77.19;100912.69;2185733;81;28679;-67
2021/11/20 07:37:36;;;;;;;14.85;11.50;;;;;;;10.70;77.31;100916.19;2184825;81;31086;-67
2021/11/20 07:40:40;;;;;;;13.72;10.85;;;;;;;10.70;77.30;100914.84;2185537;81;32972;-67
2021/11/20 07:43:42;;;;;;;15.88;11.20;;;;;;;10.69;77.37;100913.09;2184810;80;29547;-67
2021/11/20 07:46:44;;;;;;;14.63;10.95;;;;;;;10.69;77.38;100910.42;2185052;81;27622;-67
2021/11/20 07:49:47;;;;;;;13.88;10.75;;;;;;;10.69;77.58;100910.42;2200002;79;28661;-67
2021/11/20 07:52:49;;;;;;;15.35;11.68;;;;;;;10.68;77.55;100911.80;2183444;81;31024;-67
2021/11/20 07:55:53;;;;;;;16.20;12.55;;;;;;;10.69;77.62;100918.45;2187368;79;32942;-67
2021/11/20 07:58:57;;;;;;;19.27;14.13;;;;;;;10.70;77.69;100915.30;2185936;81;28849;-67
2021/11/20 08:01:59;;;;;;;16.45;12.50;;;;;;;10.71;77.73;100912.58;2226941;79;28177;-67
2021/11/20 08:05:02;;;;;;;16.48;13.10;;;;;;;10.72;77.73;100917.45;2185283;81;29893;-67
2021/11/20 08:08:05;;;;;;;13.08;11.22;;;;;;;10.74;77.79;100915.59;2185004;81;31092;-67
2021/11/20 08:11:07;;;;;;;21.12;15.28;;;;;;;10.74;77.78;100912.45;2185119;81;32954;-66
2021/11/20 08:14:10;;;;;;;14.87;11.25;;;;;;;10.75;77.85;100913.31;2185113;81;29315;-67
2021/11/20 08:17:12;;;;;;;13.28;11.00;;;;;;;10.74;77.81;100911.56;2186011;81;27655;-67
2021/11/20 08:20:18;;;;;;;13.13;11.25;;;;;;;10.72;77.82;100915.66;2192850;81;29049;-66
2021/11/20 08:23:20;;;;;;;12.53;10.95;;;;;;;10.73;77.94;100917.41;2186453;81;30879;-66
2021/11/20 08:26:31;;;;;;;11.20;9.88;;;;;;;10.74;78.00;100911.11;2172827;81;33193;-68
2021/11/20 08:29:30;;;;;;;13.93;11.10;;;;;;;10.77;78.05;100916.81;2176653;81;29675;-67
2021/11/20 08:32:32;;;;;;;16.05;11.50;;;;;;;10.79;78.05;100912.26;2150475;82;27987;-67
2021/11/20 08:35:37;;;;;;;12.47;10.28;;;;;;;10.79;78.10;100910.44;2185070;81;29857;-67
2021/11/20 08:38:40;;;;;;;16.82;12.85;;;;;;;10.83;78.17;100912.55;2185204;81;31019;-66
2021/11/20 08:41:44;;;;;;;13.65;11.20;;;;;;;10.85;78.17;100920.03;2156011;82;33108;-66
2021/11/20 08:44:46;;;;;;;15.20;10.88;;;;;;;10.89;78.24;100910.94;2119717;84;29402;-66
2021/11/20 08:47:49;;;;;;;17.17;13.43;;;;;;;10.94;78.28;100918.33;2112371;84;27643;-66
2021/11/20 08:51:00;;;;;;;15.65;11.97;;;;;;;10.99;78.24;100916.80;2112411;84;29376;-66
2021/11/20 08:54:02;;;;;;;14.25;11.25;;;;;;;11.05;78.26;100912.53;2181620;81;31866;-66
2021/11/20 08:57:05;;;;;;;14.68;11.35;;;;;;;11.10;78.24;100913.67;2118079;84;33481;-66
2021/11/20 09:00:13;;;;;;;13.48;11.57;;;;;;;11.16;78.18;100912.08;2119600;84;30082;-66
2021/11/20 09:03:23;;;;;;;17.25;12.58;;;;;;;11.20;78.12;100915.50;2119191;84;27709;-66
2021/11/20 09:06:39;;;;;;;20.48;12.88;;;;;;;11.24;78.19;100912.61;2119352;84;29308;-67
2021/11/20 09:09:54;;;;;;;24.10;13.30;;;;;;;11.30;78.12;100914.16;2107124;84;31815;-66
2021/11/20 09:13:07;;;;;;;17.95;12.88;;;;;;;11.37;78.10;100907.60;2152010;81;33192;-67
2021/11/20 09:16:14;;;;;;;17.98;13.75;;;;;;;11.46;78.12;100918.41;2141531;82;29332;-66
2021/11/20 09:19:16;;;;;;;13.48;10.60;;;;;;;11.55;78.01;100907.26;2165075;80;27706;-66
2021/11/20 09:22:19;;;;;;;13.32;10.72;;;;;;;11.61;77.91;100906.59;2179679;80;29620;-66
2021/11/20 09:25:22;;;;;;;11.38;9.13;;;;;;;11.64;77.73;100899.75;2189936;81;31093;-67
2021/11/20 09:28:27;;;;;;;20.97;12.18;;;;;;;11.68;77.73;100902.23;2177698;81;33375;-66
2021/11/20 09:31:30;;;;;;;21.62;14.03;;;;;;;11.75;77.72;100899.28;2190895;81;30194;-66
2021/11/20 09:34:32;;;;;;;10.90;8.28;;;;;;;11.80;77.68;100902.16;2191361;81;27721;-66
2021/11/20 09:37:34;;;;;;;13.35;9.23;;;;;;;11.85;77.61;100895.23;2191299;81;29959;-67
2021/11/20 09:40:40;;;;;;;10.75;8.90;;;;;;;11.93;77.53;100896.22;2191289;81;31382;-66
2021/11/20 09:43:49;;;;;;;11.60;8.40;;;;;;;11.98;77.51;100896.89;2166505;81;33895;-67
2021/11/20 09:46:56;;;;;;;9.28;8.38;;;;;;;12.03;77.44;100895.36;2189137;81;30502;-66
2021/11/20 09:50:06;;;;;;;9.15;8.20;;;;;;;12.09;77.22;100897.28;2166241;81;27636;-66
2021/11/20 09:53:08;;;;;;;14.75;11.08;;;;;;;12.09;77.15;100896.39;2152872;82;29437;-67
2021/11/20 09:56:15;;;;;;;10.80;7.92;;;;;;;12.08;76.97;100882.11;2152057;82;31196;-67
2021/11/20 09:59:30;;;;;;;10.05;8.20;;;;;;;12.07;76.85;100887.08;2177101;81;32970;-66
2021/11/20 10:03:01;;;;;;;8.80;7.95;;;;;;;12.03;76.79;100882.79;2160018;81;30119;-65
2021/11/20 10:06:14;;;;;;;9.73;7.72;;;;;;;12.02;76.82;100882.88;2153219;82;27744;-66
2021/11/20 10:09:24;;;;;;;10.60;8.23;;;;;;;11.99;76.71;100871.81;2201504;80;29891;-67
2021/11/20 10:12:36;;;;;;;9.75;7.70;;;;;;;11.97;76.73;100872.32;2222780;79;31052;-68
2021/11/20 10:15:45;;;;;;;12.05;7.97;;;;;;;11.96;76.69;100870.58;2217071;79;33064;-67
2021/11/20 10:18:55;;;;;;;12.58;8.25;;;;;;;11.98;76.61;100867.34;2167482;81;30181;-67
2021/11/20 10:22:11;;;;;;;12.75;8.28;;;;;;;11.98;76.54;100864.21;2189523;81;28318;-65
2021/11/20 10:25:48;;;;;;;8.53;7.28;;;;;;;12.00;76.53;100852.04;2154856;82;30095;-66
2021/11/20 10:29:27;;;;;;;9.73;7.97;;;;;;;12.02;76.54;100846.13;2155105;82;31479;-67
2021/11/20 10:32:52;;;;;;;11.55;8.30;;;;;;;12.07;76.54;100841.91;2114254;84;32972;-68
2021/11/20 10:36:11;;;;;;;9.88;7.45;;;;;;;12.10;76.40;100837.71;2122228;82;29375;-67
2021/11/20 10:39:23;;;;;;;10.43;8.28;;;;;;;12.11;76.21;100833.63;2132377;82;27725;-65
2021/11/20 10:42:38;;;;;;;13.88;9.63;;;;;;;12.08;76.13;100836.94;2113687;84;28660;-65
2021/11/20 10:45:52;;;;;;;;;;;;;;;12.07;76.17;100840.08;2116448;84;31038;-67
2021/11/20 10:49:36;;;;;;;11.25;8.68;;;;;;;12.08;76.04;100837.80;2114417;84;33084;-66
2021/11/20 10:53:13;;;;;;;11.33;8.53;;;;;;;12.07;76.00;100832.52;2114107;84;29700;-68
2021/11/20 10:56:31;;;;;;;12.28;8.73;;;;;;;12.03;75.98;100830.91;2114592;84;27869;-65
2021/11/20 10:59:53;;;;;;;9.25;8.33;;;;;;;12.02;75.91;100830.02;2095693;84;28661;-68
2021/11/20 11:03:34;;;;;;;11.48;8.50;;;;;;;12.04;75.96;100825.94;2138878;82;32267;-66
2021/11/20 11:06:41;;;;;;;11.28;8.63;;;;;;;12.03;75.77;100820.17;2112135;84;33316;-66
2021/11/20 11:09:47;;;;;;;16.67;11.88;;;;;;;12.03;75.75;100817.00;2149355;82;29375;-65
2021/11/20 11:13:00;;;;;;;12.45;9.30;;;;;;;12.03;75.75;100804.05;2120441;83;28255;-65
2021/11/20 11:16:19;;;;;;;15.30;10.25;;;;;;;12.03;75.64;100808.08;2157596;82;28738;-65
2021/11/20 11:19:47;;;;;;;16.27;10.65;;;;;;;12.03;75.50;100802.71;2158043;82;31173;-66
2021/11/20 11:23:00;;;;;;;12.88;8.50;;;;;;;12.00;75.44;100795.66;2172064;81;34210;-65
2021/11/20 11:26:09;;;;;;;11.20;8.90;;;;;;;12.01;75.42;100796.05;2169957;82;30133;-65
2021/11/20 11:29:37;;;;;;;12.90;9.85;;;;;;;11.98;75.37;100786.80;2138267;82;27747;-64
2021/11/20 11:32:44;;;;;;;12.75;9.25;;;;;;;12.02;75.30;100787.54;2152271;82;29216;-65
2021/11/20 11:35:56;;;;;;;15.83;9.25;;;;;;;12.04;75.26;100786.52;2117679;84;32209;-66
2021/11/20 11:39:22;;;;;;;13.72;10.50;;;;;;;12.06;75.22;100781.95;2115261;84;32407;-64
2021/11/20 11:43:02;;;;;;;14.58;11.15;;;;;;;12.06;75.18;100781.09;2078372;85;30341;-65
2021/11/20 11:46:21;;;;;;;14.87;10.58;;;;;;;12.03;75.06;100773.17;2114986;84;27764;-65
2021/11/20 11:50:00;;;;;;;18.10;13.05;;;;;;;12.03;74.90;100774.52;2089110;84;29912;-61
2021/11/20 11:53:34;;;;;;;13.15;9.48;;;;;;;12.00;74.85;100759.40;2151148;81;32191;-59
2021/11/20 11:56:41;;;;;;;10.90;8.73;;;;;;;12.03;74.91;100761.09;2081002;85;33123;-67
2021/11/20 12:00:03;;;;;;;10.25;8.10;;;;;;;12.02;74.78;100756.17;2142294;82;30215;-67
2021/11/20 12:03:29;;;;;;;10.68;8.40;;;;;;;11.99;74.67;100754.52;2150650;82;27640;-59
2021/11/20 12:06:34;;;;;;;;;;;;;;;11.97;74.62;100749.66;2120516;84;29451;-60
2021/11/20 12:09:49;;;;;;;9.33;7.73;;;;;;;11.94;74.57;100748.45;2106609;84;32383;-60
2021/11/20 12:13:07;;;;;;;9.83;8.73;;;;;;;11.92;74.56;100743.62;2075226;85;34200;-63
2021/11/20 12:16:30;;;;;;;11.43;9.15;;;;;;;11.90;74.47;100740.62;2117750;84;29713;-65
2021/11/20 12:19:51;;;;;;;15.13;9.80;;;;;;;11.88;74.47;100734.46;2110193;82;27941;-60
2021/11/20 12:23:27;;;;;;;11.05;9.30;;;;;;;11.88;74.56;100727.30;2036808;87;28697;-62
2021/11/20 12:26:50;;;;;;;11.97;9.65;;;;;;;11.85;74.45;100718.89;2054022;86;31989;-64
2021/11/20 12:30:05;;;;;;;10.90;8.85;;;;;;;11.84;74.47;100713.12;2053898;86;32957;-64
2021/11/20 12:33:44;;;;;;;15.95;11.28;;;;;;;11.86;74.42;100707.70;2054336;86;30635;-60
2021/11/20 12:37:09;;;;;;;16.62;11.43;;;;;;;11.85;74.41;100702.78;2055221;86;27727;-59
2021/11/20 12:40:37;;;;;;;18.83;13.73;;;;;;;11.84;74.28;100687.63;2021249;88;29984;-60
2021/11/20 12:43:50;;;;;;;14.07;10.80;;;;;;;11.83;74.29;100687.71;2020933;88;32258;-59
2021/11/20 12:47:03;;;;;;;19.55;13.55;;;;;;;11.81;74.26;100685.12;2021098;88;34156;-59
2021/11/20 12:50:53;;;;;;;16.40;10.98;;;;;;;11.79;74.22;100678.95;2020392;88;31371;-60
2021/11/20 12:54:00;;;;;;;21.37;15.03;;;;;;;11.79;74.13;100671.34;2024127;87;27673;-63
2021/11/20 12:57:19;;;;;;;18.73;13.95;;;;;;;11.78;74.37;100669.16;2022972;87;29562;-67
2021/11/20 13:00:36;;;;;;;19.30;13.75;;;;;;;11.80;74.24;100667.72;2078201;84;31541;-62
2021/11/20 13:03:42;;;;;;;59.85;35.00;;;;;;;11.80;74.29;100663.70;2122358;83;33330;-67
2021/11/20 13:06:55;;;;;;;27.42;18.00;;;;;;;11.78;74.18;100653.50;2135637;83;30520;-62
2021/11/20 13:10:05;;;;;;;14.60;9.98;;;;;;;11.77;74.19;100655.33;2136803;83;27793;-66
2021/11/20 13:13:21;;;;;;;20.50;12.93;;;;;;;11.77;74.11;100655.33;2137021;83;28616;-68
2021/11/20 13:16:31;;;;;;;15.20;11.63;;;;;;;11.77;74.10;100659.81;2146495;82;32249;-61
2021/11/20 13:19:44;;;;;;;18.95;11.30;;;;;;;11.75;74.08;100656.36;2171466;81;33117;-71
2021/11/20 13:22:48;;;;;;;19.02;12.73;;;;;;;11.74;74.03;100653.28;2174850;81;29695;-65
2021/11/20 13:26:08;;;;;;;49.77;27.02;;;;;;;11.70;74.05;100655.22;2191459;81;36796;-73
2021/11/20 13:29:10;;;;;;;35.35;19.95;;;;;;;11.70;74.06;100645.83;2192547;81;29878;-70
2021/11/20 13:32:16;;;;;;;18.23;14.00;;;;;;;11.71;74.16;100647.56;2190743;81;32112;-71
2021/11/20 13:35:22;;;;;;;17.17;13.15;;;;;;;11.70;73.96;100644.03;2191165;81;33907;-67
2021/11/20 13:38:25;;;;;;;19.40;12.90;;;;;;;11.68;73.99;100642.34;2191211;81;30110;-70
2021/11/20 13:41:28;;;;;;;18.77;13.83;;;;;;;11.67;74.09;100644.17;2191276;81;27719;-68
2021/11/20 13:44:30;;;;;;;16.70;12.13;;;;;;;11.68;74.07;100641.00;2190908;81;29898;-68
2021/11/20 13:47:33;;;;;;;15.60;11.78;;;;;;;11.66;73.92;100634.38;2191003;81;31043;-72
2021/11/20 13:50:41;;;;;;;14.75;11.63;;;;;;;11.63;73.89;100624.28;2191143;81;33005;-70
2021/11/20 13:53:50;;;;;;;19.00;12.88;;;;;;;11.62;73.83;100630.59;2191313;81;30100;-69
2021/11/20 13:56:53;;;;;;;18.65;12.98;;;;;;;11.60;73.98;100632.47;2191384;81;27725;-68
2021/11/20 14:00:12;;;;;;;21.27;14.65;;;;;;;11.58;73.93;100627.19;2190963;81;29480;-68
2021/11/20 14:03:13;;;;;;;14.98;12.60;;;;;;;11.56;73.96;100621.03;2191265;81;31038;-71
2021/11/20 14:06:18;;;;;;;17.17;13.00;;;;;;;11.53;73.92;100619.34;2190850;81;33363;-70
2021/11/20 14:09:21;;;;;;;16.85;13.40;;;;;;;11.52;74.00;100619.43;2190876;81;30515;-67
2021/11/20 14:12:34;;;;;;;17.98;13.40;;;;;;;11.49;74.09;100618.23;2167018;81;37761;-66
2021/11/20 14:15:28;;;;;;;18.25;13.20;;;;;;;11.49;74.07;100616.44;2165629;81;29790;-68
2021/11/20 14:18:31;;;;;;;20.95;15.80;;;;;;;11.46;74.09;100616.58;2190670;81;31536;-73
2021/11/20 14:21:34;;;;;;;32.10;20.27;;;;;;;11.44;74.14;100617.12;2191140;81;33771;-68
2021/11/20 14:24:41;;;;;;;22.87;16.50;;;;;;;11.45;74.12;100613.95;2192258;80;29320;-70
2021/11/20 14:27:56;;;;;;;18.80;14.20;;;;;;;11.43;74.16;100620.73;2192728;81;27748;-66
2021/11/20 14:30:58;;;;;;;23.20;13.75;;;;;;;11.42;74.07;100614.98;2186847;81;28653;-69